Time;durP1;ratioP1;P1;durP2;ratioP2;P2;SDS_P1;SDS_P2;PMS_P1;PMS_P2;Temp;Humidity;BMP_temperature;BMP_pressure;BME280_temperature;BME280_humidity;BME280_pressure;Samples;Min_cycle;Max_cycle;Signal;HPM_P1;HPM_P2
2022/11/10 00:00:05;;;;;;;16.27;11.98;;;;;;;10.44;84.52;99794.59;5032156;28;20064;-65
2022/11/10 00:02:31;;;;;;;15.40;12.10;;;;;;;10.40;84.66;99782.59;5036659;28;20037;-66
2022/11/10 00:04:57;;;;;;;16.20;12.40;;;;;;;10.38;84.63;99771.41;5022428;28;20021;-67
2022/11/10 00:07:24;;;;;;;15.70;11.88;;;;;;;10.36;84.47;99781.81;5022741;28;20070;-66
2022/11/10 00:09:51;;;;;;;14.85;12.40;;;;;;;10.29;84.85;99782.78;5040970;28;20352;-66
2022/11/10 00:12:18;;;;;;;16.92;12.68;;;;;;;10.30;84.53;99783.63;5042131;28;20030;-66
2022/11/10 00:17:30;;;;;;;15.88;12.73;;;;;;;10.26;84.71;99780.25;5027505;28;20229;-66
2022/11/10 00:19:56;;;;;;;16.30;11.50;;;;;;;10.34;84.71;99782.72;5041852;28;20029;-65
2022/11/10 00:22:22;;;;;;;15.25;12.10;;;;;;;10.26;84.21;99771.63;5042558;28;20029;-66
2022/11/10 00:24:47;;;;;;;17.73;12.65;;;;;;;10.25;85.07;99785.47;5050214;28;20100;-66
2022/11/10 00:27:16;;;;;;;14.35;12.00;;;;;;;10.19;84.75;99776.91;5045973;28;20100;-66
2022/11/10 00:29:41;;;;;;;17.98;12.88;;;;;;;10.22;84.99;99783.78;5047231;28;20041;-66
2022/11/10 00:32:07;;;;;;;16.23;12.38;;;;;;;10.34;84.70;99785.31;5045215;28;20318;-66
2022/11/10 00:34:34;;;;;;;15.95;12.35;;;;;;;10.27;84.70;99781.09;5025845;28;20030;-67
2022/11/10 00:36:59;;;;;;;17.35;12.73;;;;;;;10.26;84.61;99785.44;5034555;28;20025;-67
2022/11/10 00:39:25;;;;;;;17.23;13.45;;;;;;;10.19;84.70;99774.31;5025921;28;20030;-68
2022/11/10 00:41:51;;;;;;;15.55;13.30;;;;;;;10.23;84.74;99775.09;5033127;28;20028;-67
2022/11/10 00:44:16;;;;;;;19.08;12.82;;;;;;;10.26;84.52;99777.66;5042406;28;20046;-67
2022/11/10 00:46:42;;;;;;;16.55;14.15;;;;;;;10.27;84.63;99781.09;5025744;28;20388;-66
2022/11/10 00:49:07;;;;;;;17.67;12.85;;;;;;;10.18;84.81;99767.44;5043588;28;20071;-65
2022/11/10 00:51:33;;;;;;;15.77;13.70;;;;;;;10.21;85.05;99763.09;5032202;28;20068;-66
2022/11/10 00:53:59;;;;;;;19.05;13.52;;;;;;;10.28;84.56;99772.44;5025344;28;20030;-65
2022/11/10 00:56:25;;;;;;;16.70;13.68;;;;;;;10.19;84.27;99758.78;5030359;28;20352;-65
2022/11/10 00:58:50;;;;;;;15.65;13.07;;;;;;;10.25;84.31;99757.81;5044358;28;20088;-65
2022/11/10 01:01:17;;;;;;;15.85;12.93;;;;;;;10.23;84.50;99769.94;5026007;28;20033;-66
2022/11/10 01:03:43;;;;;;;19.45;14.05;;;;;;;10.21;84.61;99763.94;5039790;28;20344;-66
2022/11/10 01:06:14;;;;;;;18.45;13.05;;;;;;;10.30;84.34;99765.50;5035093;28;20018;-67
2022/11/10 01:08:41;;;;;;;17.13;13.10;;;;;;;10.32;84.13;99768.94;5045116;28;20253;-65
2022/11/10 01:11:15;;;;;;;18.85;13.38;;;;;;;10.02;84.17;99755.69;5044820;28;20033;-66
2022/11/10 01:13:42;;;;;;;16.90;14.00;;;;;;;10.22;85.38;99770.84;5045014;28;20097;-67
2022/11/10 01:16:13;;;;;;;16.73;13.45;;;;;;;10.23;84.90;99759.56;5043479;28;20322;-66
2022/11/10 01:18:40;;;;;;;16.90;13.75;;;;;;;10.21;84.45;99756.19;5030724;28;20042;-66
2022/11/10 01:21:06;;;;;;;16.23;14.10;;;;;;;10.12;84.91;99756.38;5034314;28;20338;-66
2022/11/10 01:23:32;;;;;;;18.20;14.45;;;;;;;10.16;84.68;99764.03;5050936;28;20029;-66
2022/11/10 01:26:02;;;;;;;18.75;14.07;;;;;;;10.10;84.62;99758.94;5044624;28;20049;-66
2022/11/10 01:28:29;;;;;;;16.20;13.00;;;;;;;10.08;84.60;99752.97;5024681;28;20089;-66
2022/11/10 01:31:03;;;;;;;19.75;14.73;;;;;;;10.20;84.22;99757.06;5040226;28;20056;-66
2022/11/10 01:33:29;;;;;;;16.45;13.18;;;;;;;10.29;84.09;99758.59;5044253;28;20292;-66
2022/11/10 01:35:55;;;;;;;17.10;14.57;;;;;;;10.30;84.43;99760.31;5044054;28;20030;-65
2022/11/10 01:38:21;;;;;;;17.40;14.45;;;;;;;10.17;84.67;99757.94;5044304;28;20202;-67
2022/11/10 01:40:47;;;;;;;16.88;14.07;;;;;;;10.19;84.59;99761.38;5044447;28;20033;-66
2022/11/10 01:43:13;;;;;;;17.73;13.82;;;;;;;10.24;84.57;99763.03;5026219;28;20050;-67
2022/11/10 01:46:04;;;;;;;15.95;13.40;;;;;;;10.27;84.30;99760.38;5037291;28;20037;-66
2022/11/10 01:48:46;;;;;;;19.25;13.55;;;;;;;10.25;84.64;99762.16;5031866;28;20071;-67
2022/11/10 01:51:44;;;;;;;;;;;;;;;10.29;84.50;99758.59;5034604;28;20052;-65
2022/11/10 01:54:14;;;;;;;17.55;14.45;;;;;;;10.14;84.64;99749.41;5033704;28;19969;-65
2022/11/10 01:56:46;;;;;;;17.92;15.20;;;;;;;10.10;84.96;99746.00;5029677;28;20052;-65
2022/11/10 01:59:21;;;;;;;17.05;14.57;;;;;;;10.23;84.57;99758.72;5042566;28;20338;-66
2022/11/10 02:01:49;;;;;;;17.75;14.45;;;;;;;10.22;84.83;99760.47;5024092;28;20033;-66
2022/11/10 02:04:18;;;;;;;21.15;15.20;;;;;;;10.09;84.65;99746.91;5042362;28;20067;-67
2022/11/10 02:06:46;;;;;;;21.33;14.57;;;;;;;10.21;84.33;99740.66;5029881;28;20071;-66
2022/11/10 02:09:12;;;;;;;19.73;13.93;;;;;;;10.15;84.44;99757.16;5026929;28;20049;-66
2022/11/10 02:11:39;;;;;;;17.75;14.32;;;;;;;10.29;84.14;99762.06;5023968;28;20037;-66
2022/11/10 02:14:05;;;;;;;18.38;14.18;;;;;;;10.25;84.84;99752.66;5032828;28;20043;-66
2022/11/10 02:16:32;;;;;;;18.48;15.73;;;;;;;10.28;84.60;99762.94;5023880;28;20077;-66
2022/11/10 02:19:09;;;;;;;17.25;14.07;;;;;;;10.23;84.24;99758.72;5039724;28;20040;-66
2022/11/10 02:21:35;;;;;;;19.30;14.93;;;;;;;10.25;85.10;99759.56;5030757;28;20045;-66
2022/11/10 02:24:01;;;;;;;17.17;14.50;;;;;;;10.29;84.44;99754.31;5044770;28;20032;-67
2022/11/10 02:26:29;;;;;;;22.38;15.50;;;;;;;10.22;84.62;99741.50;5039918;28;20034;-66
2022/11/10 02:28:54;;;;;;;17.65;14.30;;;;;;;10.36;84.76;99760.22;5023710;28;20038;-66
2022/11/10 02:31:20;;;;;;;18.02;15.07;;;;;;;10.35;83.91;99755.94;5042629;28;20302;-65
2022/11/10 02:33:46;;;;;;;19.83;15.45;;;;;;;10.26;84.70;99753.50;5041122;28;20068;-66
2022/11/10 02:36:11;;;;;;;20.42;15.77;;;;;;;10.27;84.57;99760.38;5040611;28;20459;-66
2022/11/10 02:38:38;;;;;;;19.80;15.80;;;;;;;10.26;84.29;99751.78;5043277;28;20037;-66
2022/11/10 02:41:03;;;;;;;18.92;15.40;;;;;;;10.23;84.74;99762.16;5043371;28;20603;-67
2022/11/10 02:43:29;;;;;;;18.58;15.38;;;;;;;10.25;85.00;99772.53;5022676;28;20108;-67
2022/11/10 02:45:55;;;;;;;21.25;15.30;;;;;;;10.19;84.28;99763.97;5038315;28;20033;-66
2022/11/10 02:48:21;;;;;;;20.27;15.85;;;;;;;10.27;84.46;99758.63;5032425;28;20025;-67
2022/11/10 02:50:46;;;;;;;17.58;15.50;;;;;;;10.27;84.32;99761.22;5029050;28;20048;-66
2022/11/10 02:53:12;;;;;;;17.25;15.40;;;;;;;10.21;84.92;99765.69;5040981;28;20273;-66
2022/11/10 02:55:38;;;;;;;20.40;16.33;;;;;;;10.17;84.82;99755.38;5023543;28;20041;-65
2022/11/10 02:58:03;;;;;;;20.33;15.80;;;;;;;10.21;84.88;99760.50;5039572;28;20037;-66
2022/11/10 03:00:29;;;;;;;20.20;15.43;;;;;;;10.17;84.74;99760.53;5042920;28;20037;-67
2022/11/10 03:03:00;;;;;;;19.17;15.25;;;;;;;10.14;85.21;99755.44;5036058;28;20026;-67
2022/11/10 03:05:28;;;;;;;20.50;15.40;;;;;;;10.23;84.66;99769.09;5023246;28;20085;-66
2022/11/10 03:07:59;;;;;;;18.95;15.73;;;;;;;10.01;84.86;99753.97;5028591;28;20048;-65
2022/11/10 03:10:26;;;;;;;21.33;15.52;;;;;;;10.05;85.49;99760.78;5044042;28;20028;-66
2022/11/10 03:12:56;;;;;;;22.80;15.40;;;;;;;10.15;85.07;99767.50;5028230;28;20037;-65
2022/11/10 03:15:22;;;;;;;17.55;15.07;;;;;;;10.15;84.88;99767.50;5022879;28;20033;-67
2022/11/10 03:17:48;;;;;;;20.15;15.50;;;;;;;10.18;85.05;99766.59;5028555;28;20031;-66
2022/11/10 03:20:14;;;;;;;18.90;14.40;;;;;;;10.22;84.94;99757.88;5041965;28;20053;-66
2022/11/10 03:22:40;;;;;;;17.20;15.27;;;;;;;10.26;84.27;99766.44;5030072;28;20237;-66
2022/11/10 03:25:07;;;;;;;20.60;16.13;;;;;;;10.24;84.85;99763.03;5046161;28;20033;-66
2022/11/10 03:27:32;;;;;;;20.77;16.35;;;;;;;10.05;84.53;99760.78;5042853;28;20092;-65
2022/11/10 03:29:58;;;;;;;19.65;16.35;;;;;;;10.07;85.14;99761.59;5041804;28;20032;-64
2022/11/10 03:32:23;;;;;;;18.85;15.10;;;;;;;10.02;85.49;99764.28;5042619;28;20036;-65
2022/11/10 03:34:49;;;;;;;21.13;16.48;;;;;;;10.00;85.52;99763.47;5044059;28;20029;-64
2022/11/10 03:37:15;;;;;;;19.25;15.32;;;;;;;10.04;85.45;99764.25;5033100;28;20314;-65
2022/11/10 03:39:40;;;;;;;19.08;15.77;;;;;;;10.13;84.69;99756.34;5035359;28;20029;-65
2022/11/10 03:42:06;;;;;;;22.92;16.23;;;;;;;10.06;85.27;99756.47;5034296;28;20068;-66
2022/11/10 03:44:31;;;;;;;24.15;16.05;;;;;;;10.08;84.63;99755.56;5025522;28;20092;-66
2022/11/10 03:46:57;;;;;;;23.08;16.63;;;;;;;10.02;84.75;99745.31;5042397;28;20075;-66
2022/11/10 03:49:22;;;;;;;17.13;14.63;;;;;;;10.17;84.83;99744.16;5037476;28;20293;-66
2022/11/10 03:51:48;;;;;;;19.98;16.33;;;;;;;9.86;85.14;99744.72;5028961;28;20033;-66
2022/11/10 03:54:14;;;;;;;18.77;15.88;;;;;;;9.90;85.44;99741.19;5022861;28;20318;-65
2022/11/10 03:56:39;;;;;;;20.30;16.25;;;;;;;9.87;85.19;99753.34;5030700;28;20060;-67
2022/11/10 03:59:05;;;;;;;21.27;16.40;;;;;;;9.95;85.02;99746.31;5039256;28;20048;-67
2022/11/10 04:01:30;;;;;;;18.55;15.52;;;;;;;9.92;84.98;99738.59;5041007;28;20383;-66
2022/11/10 04:03:56;;;;;;;21.27;15.02;;;;;;;10.07;84.86;99733.13;5031367;28;20033;-65
2022/11/10 04:09:07;;;;;;;19.17;16.20;;;;;;;10.05;84.80;99740.09;5045893;28;20037;-66
2022/11/10 04:17:03;;;;;;;21.63;15.65;;;;;;;9.92;84.73;99733.41;5033494;28;20230;-66
2022/11/10 04:19:29;;;;;;;21.25;16.17;;;;;;;9.91;84.72;99737.75;5045019;28;20037;-66
2022/11/10 04:21:55;;;;;;;19.75;16.48;;;;;;;9.88;85.51;99721.44;5031176;28;20029;-66
2022/11/10 04:24:20;;;;;;;21.33;16.75;;;;;;;9.89;85.16;99733.47;5050596;28;20088;-66
2022/11/10 04:26:47;;;;;;;20.40;16.80;;;;;;;9.86;85.22;99734.38;5042208;28;20022;-66
2022/11/10 04:29:15;;;;;;;22.83;16.85;;;;;;;9.93;84.94;99735.13;5044041;28;20036;-65
2022/11/10 04:31:42;;;;;;;19.75;15.82;;;;;;;10.00;84.46;99727.25;5025844;28;20085;-66
2022/11/10 04:34:11;;;;;;;19.63;16.08;;;;;;;9.86;84.76;99718.84;5041457;28;20037;-66
2022/11/10 04:36:38;;;;;;;22.30;16.52;;;;;;;9.79;85.58;99715.53;5043693;28;20035;-67
2022/11/10 04:39:04;;;;;;;21.05;17.08;;;;;;;9.81;85.65;99737.06;5045245;28;20048;-66
2022/11/10 04:41:31;;;;;;;19.65;15.98;;;;;;;9.75;85.22;99749.22;5042871;28;20294;-67
2022/11/10 04:43:57;;;;;;;21.20;17.58;;;;;;;9.82;85.62;99751.69;5025546;28;20131;-66
2022/11/10 04:46:30;;;;;;;20.80;16.27;;;;;;;9.78;85.21;99747.44;5042992;28;20034;-65
2022/11/10 04:48:56;;;;;;;20.30;16.73;;;;;;;9.70;85.46;99753.63;5031250;28;20322;-67
2022/11/10 04:51:28;;;;;;;22.63;17.73;;;;;;;9.66;85.83;99763.16;5025453;28;20033;-66
2022/11/10 04:53:53;;;;;;;;;;;;;;;9.76;85.84;99758.69;5031483;28;20096;-66
2022/11/10 04:56:21;;;;;;;20.33;16.52;;;;;;;9.65;85.64;99762.31;5044089;28;20247;-65
2022/11/10 04:58:48;;;;;;;20.88;16.55;;;;;;;9.77;85.17;99763.00;5025522;28;20084;-66
2022/11/10 05:01:16;;;;;;;19.67;16.92;;;;;;;9.87;85.05;99758.53;5041515;28;20044;-66
2022/11/10 05:03:43;;;;;;;22.92;17.73;;;;;;;9.80;85.45;99770.69;5032390;28;20084;-65
2022/11/10 05:06:09;;;;;;;22.55;16.92;;;;;;;9.76;85.11;99769.03;5031864;28;20029;-66
2022/11/10 05:08:36;;;;;;;19.85;17.30;;;;;;;9.52;85.20;99754.78;5043761;28;20341;-64
2022/11/10 05:11:02;;;;;;;20.40;17.00;;;;;;;9.57;85.80;99766.75;5044501;28;20282;-66
2022/11/10 05:13:28;;;;;;;23.30;18.05;;;;;;;9.72;84.93;99764.78;5044734;28;20025;-65
2022/11/10 05:15:53;;;;;;;23.77;18.15;;;;;;;9.68;84.80;99767.44;5044716;28;20029;-65
2022/11/10 05:18:19;;;;;;;21.73;17.55;;;;;;;9.61;84.97;99763.25;5034288;28;20029;-66
2022/11/10 05:20:45;;;;;;;19.67;17.63;;;;;;;9.68;84.46;99764.00;5028150;28;20036;-66
2022/11/10 05:25:55;;;;;;;23.42;17.67;;;;;;;9.64;84.66;99760.59;5032689;28;20025;-65
2022/11/10 05:28:21;;;;;;;22.30;17.40;;;;;;;9.68;84.78;99759.69;5027048;28;20045;-66
2022/11/10 05:30:46;;;;;;;27.42;18.38;;;;;;;9.60;84.47;99755.53;5029530;28;20029;-65
2022/11/10 05:33:12;;;;;;;22.50;17.13;;;;;;;9.66;84.98;99763.16;5040653;28;20041;-66
2022/11/10 05:35:38;;;;;;;22.13;18.05;;;;;;;9.55;84.25;99765.06;5034295;28;20030;-65
2022/11/10 05:38:04;;;;;;;21.70;17.75;;;;;;;9.43;84.86;99763.53;5043672;28;20037;-67
2022/11/10 05:40:31;;;;;;;22.50;16.70;;;;;;;9.54;84.93;99761.63;5013009;28;20041;-66
2022/11/10 05:42:57;;;;;;;20.52;17.00;;;;;;;9.57;84.42;99766.75;5043704;28;20037;-65
2022/11/10 05:45:25;;;;;;;22.38;16.13;;;;;;;9.62;83.92;99774.44;5043993;28;20339;-64
2022/11/10 05:47:52;;;;;;;19.33;16.75;;;;;;;9.61;83.86;99773.59;5038789;28;20029;-65
2022/11/10 05:50:19;;;;;;;22.05;15.57;;;;;;;9.66;83.32;99758.88;5024156;28;20100;-66
2022/11/10 05:52:50;;;;;;;25.58;17.90;;;;;;;9.62;83.27;99767.56;5025933;28;20021;-67
2022/11/10 05:55:19;;;;;;;23.80;16.25;;;;;;;9.42;83.81;99754.06;5028705;28;20033;-65
2022/11/10 05:57:47;;;;;;;20.02;16.05;;;;;;;9.46;83.38;99750.56;5023749;28;20257;-65
2022/11/10 06:00:15;;;;;;;22.67;16.55;;;;;;;9.60;83.72;99756.34;5034890;28;20033;-65
2022/11/10 06:02:42;;;;;;;21.42;16.08;;;;;;;9.60;82.78;99752.94;5027317;28;20021;-66
2022/11/10 06:05:08;;;;;;;19.88;15.95;;;;;;;9.55;83.32;99757.31;5043262;28;20025;-66
2022/11/10 06:07:34;;;;;;;23.30;15.60;;;;;;;9.52;83.70;99757.38;5028037;28;20038;-66
2022/11/10 06:10:00;;;;;;;23.02;16.08;;;;;;;9.54;83.32;99760.81;5036714;28;20044;-66
2022/11/10 06:12:29;;;;;;;20.75;15.00;;;;;;;9.61;82.76;99758.06;5038566;28;20033;-66
2022/11/10 06:14:56;;;;;;;21.67;15.90;;;;;;;9.57;82.84;99758.16;5029984;28;20034;-66
2022/11/10 06:17:22;;;;;;;19.48;15.60;;;;;;;9.44;83.54;99752.34;5024595;28;20029;-66
2022/11/10 06:19:47;;;;;;;19.73;14.98;;;;;;;9.48;83.51;99748.81;5040403;28;20033;-66
2022/11/10 06:22:13;;;;;;;23.20;15.85;;;;;;;9.46;82.39;99755.72;5043886;28;20225;-66
2022/11/10 06:24:38;;;;;;;23.25;15.60;;;;;;;9.41;83.50;99757.56;5034786;28;20041;-66
2022/11/10 06:27:04;;;;;;;23.73;16.02;;;;;;;9.55;83.23;99760.78;5037232;28;20021;-67
2022/11/10 06:29:29;;;;;;;22.92;15.02;;;;;;;9.40;82.24;99766.19;5023956;28;20044;-66
2022/11/10 06:31:56;;;;;;;19.38;14.63;;;;;;;9.49;82.36;99766.91;5043053;28;20202;-66
2022/11/10 06:34:22;;;;;;;21.27;15.38;;;;;;;9.56;81.99;99770.22;5043186;28;20046;-66
2022/11/10 06:36:47;;;;;;;20.95;14.82;;;;;;;9.52;82.20;99768.59;5042695;28;20132;-66
2022/11/10 06:39:13;;;;;;;21.08;14.60;;;;;;;9.44;82.68;99767.84;5043048;28;20049;-67
2022/11/10 06:41:38;;;;;;;21.50;14.82;;;;;;;9.37;82.53;99777.41;5040164;28;20026;-67
2022/11/10 06:44:05;;;;;;;19.63;14.23;;;;;;;9.28;83.27;99777.56;5023155;28;20065;-67
2022/11/10 06:46:32;;;;;;;22.65;14.60;;;;;;;9.39;83.04;99767.91;5046208;28;20056;-66
2022/11/10 06:48:57;;;;;;;20.08;14.52;;;;;;;9.21;82.26;99766.47;5046568;28;20033;-65
2022/11/10 06:51:23;;;;;;;21.27;14.10;;;;;;;9.24;83.22;99760.38;5047782;28;20214;-66
2022/11/10 06:53:49;;;;;;;17.70;14.13;;;;;;;9.26;82.45;99763.78;5048825;28;20022;-66
2022/11/10 06:56:14;;;;;;;20.25;14.30;;;;;;;9.36;82.82;99770.53;5044628;28;20049;-65
2022/11/10 06:58:40;;;;;;;20.98;14.65;;;;;;;9.43;81.72;99768.72;5031271;28;20037;-66
2022/11/10 07:01:05;;;;;;;21.13;13.90;;;;;;;9.44;81.59;99768.69;5042902;28;20045;-65
2022/11/10 07:03:31;;;;;;;22.27;14.38;;;;;;;9.34;81.78;99756.78;5033296;28;20022;-66
2022/11/10 07:05:57;;;;;;;22.05;14.30;;;;;;;9.42;81.10;99770.44;5021831;28;20318;-66
2022/11/10 07:08:23;;;;;;;21.70;14.27;;;;;;;9.42;81.15;99773.03;5042462;28;20021;-65
2022/11/10 07:10:54;;;;;;;16.50;13.55;;;;;;;9.39;81.70;99774.81;5053302;28;20375;-66
2022/11/10 07:13:20;;;;;;;19.52;13.30;;;;;;;9.41;81.44;99779.06;5053531;28;20020;-66
2022/11/10 07:15:46;;;;;;;20.58;13.93;;;;;;;9.52;81.24;99773.75;5053743;28;20179;-66
2022/11/10 07:18:12;;;;;;;23.77;14.50;;;;;;;9.50;81.40;99776.38;5039017;28;20033;-66
2022/11/10 07:20:39;;;;;;;22.00;14.13;;;;;;;9.57;80.34;99773.66;5022833;28;20048;-65
2022/11/10 07:23:06;;;;;;;19.02;13.82;;;;;;;9.67;80.61;99764.88;5036601;28;20024;-66
2022/11/10 07:25:34;;;;;;;24.80;14.02;;;;;;;9.54;80.65;99769.41;5050120;28;20025;-65
2022/11/10 07:28:05;;;;;;;22.08;13.55;;;;;;;9.55;80.33;99759.91;5045531;28;20029;-66
2022/11/10 07:30:33;;;;;;;23.42;14.20;;;;;;;9.72;79.96;99767.38;5049614;28;20064;-66
2022/11/10 07:33:09;;;;;;;22.98;14.00;;;;;;;9.74;79.73;99782.00;5041726;28;20372;-66
2022/11/10 07:35:35;;;;;;;22.50;13.65;;;;;;;9.79;79.96;99782.78;5028593;28;20038;-65
2022/11/10 07:38:03;;;;;;;21.83;13.40;;;;;;;9.89;79.68;99800.72;5046749;28;20042;-66
2022/11/10 07:40:29;;;;;;;21.70;14.07;;;;;;;9.99;78.77;99782.44;5027857;28;20049;-66
2022/11/10 07:42:55;;;;;;;18.85;13.15;;;;;;;10.23;78.69;99779.44;5039430;28;20045;-66
2022/11/10 07:45:21;;;;;;;21.00;13.60;;;;;;;10.35;78.47;99782.69;5037312;28;20052;-66
2022/11/10 07:47:46;;;;;;;23.08;15.00;;;;;;;10.57;78.13;99789.19;5029740;28;20030;-66
2022/11/10 07:50:12;;;;;;;19.38;13.60;;;;;;;10.66;77.89;99794.16;5046556;28;20348;-66
2022/11/10 07:52:38;;;;;;;19.77;14.43;;;;;;;10.42;78.12;99791.19;5045898;28;20037;-66
2022/11/10 07:55:05;;;;;;;20.08;13.73;;;;;;;10.41;78.14;99794.66;5032597;28;20026;-65
2022/11/10 07:57:32;;;;;;;21.38;14.15;;;;;;;10.46;77.52;99795.44;5035364;28;20021;-65
2022/11/10 07:59:58;;;;;;;20.83;14.57;;;;;;;10.45;77.11;99780.78;5041522;28;20034;-65
2022/11/10 08:02:24;;;;;;;20.52;13.77;;;;;;;10.31;77.93;99790.50;5026180;28;20033;-65
2022/11/10 08:04:49;;;;;;;20.67;13.93;;;;;;;10.09;77.83;99777.97;5051642;28;20099;-66
2022/11/10 08:07:15;;;;;;;16.23;13.65;;;;;;;10.08;77.93;99790.94;5054315;28;20029;-66
2022/11/10 08:09:41;;;;;;;23.17;13.57;;;;;;;10.08;78.02;99775.41;5055360;28;20040;-66
2022/11/10 08:12:06;;;;;;;17.92;14.13;;;;;;;10.09;78.13;99797.78;5056519;28;20040;-66
2022/11/10 08:14:32;;;;;;;24.08;14.77;;;;;;;10.04;78.62;99795.28;5054364;28;20306;-65
2022/11/10 08:16:57;;;;;;;22.38;15.10;;;;;;;10.15;78.63;99793.38;5053011;28;20036;-65
2022/11/10 08:19:23;;;;;;;21.42;15.45;;;;;;;10.06;78.38;99793.56;5050804;28;20048;-65
2022/11/10 08:21:48;;;;;;;19.25;14.60;;;;;;;10.04;78.54;99782.34;5053894;28;20032;-66
2022/11/10 08:24:14;;;;;;;20.92;14.75;;;;;;;9.88;79.23;99788.69;5050204;28;20030;-66
2022/11/10 08:26:40;;;;;;;24.38;15.25;;;;;;;9.82;79.62;99780.16;5050973;28;20123;-66
2022/11/10 08:29:06;;;;;;;21.15;14.88;;;;;;;9.99;79.23;99782.44;5055680;28;20053;-66
2022/11/10 08:31:32;;;;;;;25.40;15.90;;;;;;;10.10;79.58;99781.41;5052792;28;20032;-66
2022/11/10 08:33:58;;;;;;;20.92;14.93;;;;;;;10.18;78.62;99782.13;5053706;28;20071;-66
2022/11/10 08:36:24;;;;;;;23.58;14.52;;;;;;;10.18;79.18;99782.97;5053263;28;20025;-65
2022/11/10 08:38:50;;;;;;;20.75;15.00;;;;;;;10.27;78.89;99769.00;5048118;28;20037;-65
2022/11/10 08:41:16;;;;;;;21.98;15.23;;;;;;;10.31;78.80;99772.38;5052139;28;20026;-65
2022/11/10 08:43:42;;;;;;;22.38;15.18;;;;;;;10.13;78.72;99745.97;5051470;28;20037;-65
2022/11/10 08:46:07;;;;;;;20.63;15.13;;;;;;;10.28;78.67;99775.88;5051196;28;20104;-66
2022/11/10 08:48:33;;;;;;;22.13;15.10;;;;;;;10.34;78.47;99774.94;5051081;28;20059;-65
2022/11/10 08:51:01;;;;;;;19.27;14.32;;;;;;;10.35;78.84;99784.44;5054051;28;20037;-65
2022/11/10 08:53:27;;;;;;;20.52;15.63;;;;;;;10.33;78.56;99784.44;5059668;28;20025;-66
2022/11/10 08:55:57;;;;;;;25.38;16.40;;;;;;;10.25;78.32;99775.09;5044617;28;20051;-65
2022/11/10 08:58:23;;;;;;;26.70;16.98;;;;;;;10.21;78.58;99770.88;5029079;28;20100;-65
2022/11/10 09:00:50;;;;;;;24.60;16.15;;;;;;;10.09;79.07;99771.91;5025057;28;20112;-64
2022/11/10 09:03:21;;;;;;;21.35;15.63;;;;;;;10.16;78.78;99778.69;5035411;28;20037;-64
2022/11/10 09:05:47;;;;;;;21.08;15.75;;;;;;;10.23;78.55;99772.50;5023712;28;20025;-65
2022/11/10 09:08:14;;;;;;;24.13;16.27;;;;;;;10.15;78.93;99767.50;5029242;28;20290;-64
2022/11/10 09:10:44;;;;;;;26.05;16.52;;;;;;;10.15;78.96;99762.31;5044827;28;20045;-65
2022/11/10 09:13:12;;;;;;;23.20;15.45;;;;;;;10.31;79.07;99777.56;5030766;28;20021;-64
2022/11/10 09:15:38;;;;;;;25.90;16.20;;;;;;;10.41;78.57;99771.34;5024763;28;20036;-65
2022/11/10 09:18:05;;;;;;;22.98;15.52;;;;;;;10.42;78.10;99775.66;5029268;28;20282;-65
2022/11/10 09:20:33;;;;;;;21.80;15.68;;;;;;;10.49;78.17;99787.59;5044472;28;20032;-64
2022/11/10 09:23:13;;;;;;;24.73;17.23;;;;;;;10.40;78.24;99761.88;5036805;28;20070;-65
2022/11/10 09:25:39;;;;;;;23.73;16.60;;;;;;;10.45;78.03;99769.56;5046883;28;20025;-65
2022/11/10 09:28:10;;;;;;;22.45;15.75;;;;;;;10.39;78.04;99744.66;5030348;28;20206;-65
2022/11/10 09:30:36;;;;;;;22.52;16.13;;;;;;;10.38;78.42;99758.47;5033722;28;20040;-65
2022/11/10 09:33:01;;;;;;;21.58;16.55;;;;;;;10.47;78.21;99773.81;5040156;28;20030;-64
2022/11/10 09:35:27;;;;;;;27.48;16.70;;;;;;;10.56;78.28;99778.00;5024136;28;20045;-64
2022/11/10 09:37:53;;;;;;;25.77;17.08;;;;;;;10.41;78.41;99761.00;5044514;28;20025;-64
2022/11/10 09:40:49;;;;;;;26.00;15.93;;;;;;;10.49;78.44;99769.47;5029762;28;20361;-64
2022/11/10 09:43:36;;;;;;;24.98;17.27;;;;;;;10.47;78.50;99753.09;5038718;28;20057;-65
2022/11/10 09:46:14;;;;;;;24.17;16.75;;;;;;;10.39;78.49;99767.09;5049930;28;20325;-65
2022/11/10 09:48:49;;;;;;;21.77;17.05;;;;;;;10.60;77.93;99771.84;5056624;28;20043;-64
2022/11/10 09:51:25;;;;;;;24.45;16.48;;;;;;;10.61;77.49;99749.41;5040742;28;20068;-65
2022/11/10 09:54:01;;;;;;;26.02;17.50;;;;;;;10.50;77.68;99744.44;5031773;28;20028;-64
2022/11/10 09:56:36;;;;;;;24.73;17.00;;;;;;;10.68;77.46;99744.03;5030870;28;20057;-64
2022/11/10 09:59:18;;;;;;;24.17;16.88;;;;;;;10.72;77.53;99737.09;5024246;28;20072;-65
2022/11/10 10:02:01;;;;;;;27.05;17.33;;;;;;;10.56;77.53;99746.91;5024006;28;20042;-65
2022/11/10 10:04:51;;;;;;;29.83;17.98;;;;;;;10.63;77.72;99738.13;5041555;28;20032;-64
2022/11/10 10:07:34;;;;;;;26.88;18.30;;;;;;;10.65;77.36;99745.88;5053042;28;20029;-64
2022/11/10 10:10:27;;;;;;;26.85;17.10;;;;;;;10.74;77.06;99750.00;5051889;28;20085;-64
2022/11/10 10:13:17;;;;;;;20.83;16.80;;;;;;;10.59;77.80;99766.69;5049996;28;20059;-66
2022/11/10 10:16:01;;;;;;;26.10;17.17;;;;;;;10.58;77.94;99754.66;5048678;28;20043;-65
2022/11/10 10:18:45;;;;;;;27.02;18.15;;;;;;;10.50;77.62;99762.56;5051378;28;20096;-65
2022/11/10 10:21:36;;;;;;;26.17;17.13;;;;;;;10.61;77.47;99760.59;5052350;28;20024;-65
2022/11/10 10:24:02;;;;;;;27.73;17.75;;;;;;;10.38;78.18;99752.47;5051744;28;20289;-63
2022/11/10 10:26:36;;;;;;;25.10;18.42;;;;;;;10.25;78.53;99737.13;5049218;28;20026;-64
2022/11/10 10:29:09;;;;;;;26.65;18.25;;;;;;;10.42;78.13;99757.53;5040201;28;20035;-64
2022/11/10 10:31:41;;;;;;;26.45;18.73;;;;;;;10.38;77.24;99732.59;5051773;28;20032;-65
2022/11/10 10:34:28;;;;;;;28.77;18.52;;;;;;;10.46;78.39;99751.41;5052188;28;20052;-64
2022/11/10 10:36:53;;;;;;;25.20;18.02;;;;;;;10.60;78.13;99764.06;5047895;28;20052;-64
2022/11/10 10:39:26;;;;;;;26.48;18.23;;;;;;;10.61;77.86;99772.72;5047572;28;20317;-65
2022/11/10 10:41:51;;;;;;;24.05;17.38;;;;;;;10.63;78.01;99757.97;5051065;28;20067;-65
2022/11/10 10:44:18;;;;;;;24.67;18.20;;;;;;;10.56;77.69;99751.22;5053596;28;20341;-65
2022/11/10 10:46:54;;;;;;;28.63;17.77;;;;;;;10.66;77.41;99773.44;5049516;28;20043;-65
2022/11/10 10:49:21;;;;;;;28.15;18.05;;;;;;;10.76;77.05;99772.41;5047704;28;20051;-64
2022/11/10 10:51:47;;;;;;;24.92;17.73;;;;;;;10.65;77.09;99756.22;5052200;28;20348;-65
2022/11/10 10:54:29;;;;;;;29.60;19.73;;;;;;;10.72;77.11;99768.16;5051429;28;20021;-64
2022/11/10 10:57:19;;;;;;;28.15;18.70;;;;;;;10.73;77.33;99766.41;5042984;28;20083;-64
2022/11/10 10:59:45;;;;;;;24.48;17.10;;;;;;;10.82;76.77;99759.31;5041902;28;20064;-65
2022/11/10 11:02:37;;;;;;;24.17;18.02;;;;;;;10.87;77.33;99756.59;5021841;28;20061;-65
2022/11/10 11:05:16;;;;;;;24.15;17.48;;;;;;;10.85;76.45;99750.63;5039576;28;20381;-65
2022/11/10 11:07:57;;;;;;;27.15;17.90;;;;;;;10.67;77.20;99734.59;5042981;28;20048;-65
2022/11/10 11:10:32;;;;;;;30.30;18.70;;;;;;;10.71;76.79;99733.63;5043029;28;20368;-64
2022/11/10 11:13:24;;;;;;;30.05;18.67;;;;;;;10.60;77.77;99747.69;5031651;28;20278;-65
2022/11/10 11:15:58;;;;;;;25.83;18.00;;;;;;;10.63;77.81;99747.63;5023098;28;20018;-65
2022/11/10 11:18:26;;;;;;;24.25;17.67;;;;;;;10.64;77.56;99719.09;5029309;28;20044;-64
2022/11/10 11:21:05;;;;;;;25.52;17.92;;;;;;;10.91;77.86;99750.47;5040864;28;20052;-65
2022/11/10 11:23:34;;;;;;;31.15;18.67;;;;;;;10.90;77.64;99750.50;5047001;28;20036;-65
2022/11/10 11:26:21;;;;;;;23.83;18.05;;;;;;;10.77;77.52;99757.69;5043225;28;20026;-64
2022/11/10 11:28:57;;;;;;;31.00;19.55;;;;;;;10.67;77.57;99750.13;5025161;28;20029;-64
2022/11/10 11:31:56;;;;;;;22.13;17.50;;;;;;;10.73;77.51;99756.94;5035899;28;20096;-64
2022/11/10 11:34:31;;;;;;;22.48;17.90;;;;;;;10.62;77.93;99762.31;5027998;28;20097;-65
2022/11/10 11:37:15;;;;;;;26.85;18.45;;;;;;;10.63;78.00;99756.25;5035674;28;20032;-65
2022/11/10 11:40:03;;;;;;;25.30;18.35;;;;;;;10.55;77.61;99740.03;5047812;28;20021;-64